createdAt,value
2023-04-14T00:00:37.890Z,763.98
2023-04-14T00:01:37.956Z,603.60
2023-04-14T00:02:38.224Z,671.16
2023-04-14T00:03:38.139Z,575.51
2023-04-14T00:04:38.111Z,550.39
2023-04-14T00:05:38.171Z,488.36
2023-04-14T00:06:38.236Z,508.24
2023-04-14T00:07:38.333Z,590.13
2023-04-14T00:08:38.337Z,670.20
2023-04-14T00:09:38.404Z,436.61
2023-04-14T00:10:38.463Z,297.76
2023-04-14T00:11:38.524Z,255.17
2023-04-14T00:12:38.586Z,239.78
2023-04-14T00:13:38.653Z,311.12
2023-04-14T00:14:38.695Z,427.42
2023-04-14T00:15:38.771Z,504.04
2023-04-14T00:16:38.802Z,409.12
2023-04-14T00:17:38.845Z,359.22
2023-04-14T00:18:38.876Z,325.44
2023-04-14T00:19:38.847Z,302.94
2023-04-14T00:20:38.889Z,329.30
2023-04-14T00:21:38.943Z,288.38
2023-04-14T00:22:39.042Z,254.25
2023-04-14T00:23:39.070Z,252.89
2023-04-14T00:24:39.121Z,257.63
2023-04-14T00:25:39.194Z,244.33
2023-04-14T00:26:39.194Z,224.31
2023-04-14T00:27:39.208Z,206.17
2023-04-14T00:28:39.285Z,216.32
2023-04-14T00:29:39.325Z,170.35
2023-04-14T00:30:39.365Z,410.07
2023-04-14T00:31:39.424Z,286.70
2023-04-14T00:32:39.528Z,245.14
2023-04-14T00:33:39.551Z,235.58
2023-04-14T00:34:39.547Z,204.64
2023-04-14T00:35:39.592Z,194.69
2023-04-14T00:36:39.696Z,109.94
2023-04-14T00:37:39.795Z,76.53
2023-04-14T00:38:39.854Z,53.99
2023-04-14T00:39:39.892Z,47.66
2023-04-14T00:40:39.924Z,39.79
2023-04-14T00:41:39.988Z,37.35
2023-04-14T00:42:40.013Z,35.96
2023-04-14T00:43:40.089Z,33.93
2023-04-14T00:44:40.105Z,31.44
2023-04-14T00:45:40.171Z,31.46
2023-04-14T00:46:40.250Z,31.64
2023-04-14T00:47:41.189Z,28.15
2023-04-14T00:48:40.362Z,26.61
2023-04-14T00:49:40.366Z,31.17
2023-04-14T00:50:41.182Z,27.36
2023-04-14T00:51:40.497Z,34.91
2023-04-14T00:52:40.601Z,41.77
2023-04-14T00:53:40.706Z,47.00
2023-04-14T00:54:40.801Z,60.92
2023-04-14T00:55:40.724Z,65.55
2023-04-14T00:56:40.815Z,50.11
2023-04-14T00:57:40.892Z,28.48
2023-04-14T00:58:41.030Z,25.42
2023-04-14T00:59:41.055Z,17.16
2023-04-14T01:00:41.105Z,17.31
2023-04-14T01:01:41.219Z,16.40
2023-04-14T01:02:41.584Z,20.78
2023-04-14T01:03:41.598Z,14.11
2023-04-14T01:04:52.845Z,14.16
2023-04-14T01:05:42.337Z,14.24
2023-04-14T01:06:41.318Z,14.83
2023-04-14T01:07:41.315Z,14.93
2023-04-14T01:08:42.153Z,15.07
2023-04-14T01:09:41.295Z,20.94
2023-04-14T01:10:41.257Z,23.25
2023-04-14T01:11:41.239Z,28.15
2023-04-14T01:12:41.260Z,29.83
2023-04-14T01:13:49.313Z,32.61
2023-04-14T01:14:41.300Z,32.61
2023-04-14T01:15:41.368Z,30.62
2023-04-14T01:16:41.276Z,28.65
2023-04-14T01:17:41.315Z,26.05
2023-04-14T01:18:41.294Z,25.18
2023-04-14T01:19:41.328Z,27.64
2023-04-14T01:20:41.322Z,28.32
2023-04-14T01:21:41.355Z,28.05
2023-04-14T01:22:41.437Z,24.52
2023-04-14T01:23:41.499Z,21.27
2023-04-14T01:24:41.543Z,19.27
2023-04-14T01:25:41.612Z,16.36
2023-04-14T01:26:41.673Z,17.24
2023-04-14T01:27:41.731Z,16.77
2023-04-14T01:28:41.799Z,16.72
2023-04-14T01:29:41.841Z,17.05
2023-04-14T01:30:41.913Z,17.09
2023-04-14T01:31:41.970Z,19.67
2023-04-14T01:32:41.938Z,25.32
2023-04-14T01:33:41.940Z,24.83
2023-04-14T01:34:41.969Z,17.74
2023-04-14T01:35:42.081Z,17.52
2023-04-14T01:36:42.164Z,20.83
2023-04-14T01:37:42.217Z,18.26
2023-04-14T01:38:42.253Z,16.44
2023-04-14T01:39:42.237Z,15.90
2023-04-14T01:40:42.246Z,18.61
2023-04-14T01:41:42.268Z,23.02
2023-04-14T01:42:42.252Z,29.28
2023-04-14T01:43:42.293Z,35.43
2023-04-14T01:44:42.211Z,25.45
2023-04-14T01:45:42.317Z,20.51
2023-04-14T01:46:42.399Z,22.85
2023-04-14T01:47:42.496Z,31.21
2023-04-14T01:48:42.537Z,66.56
2023-04-14T01:49:42.523Z,70.21
2023-04-14T01:50:42.448Z,90.79
2023-04-14T01:51:42.529Z,69.40
2023-04-14T01:52:42.475Z,55.69
2023-04-14T01:53:42.534Z,47.72
2023-04-14T01:54:42.533Z,44.14
2023-04-14T01:55:42.546Z,48.53
2023-04-14T01:56:42.520Z,45.67
2023-04-14T01:57:42.522Z,45.83
2023-04-14T01:58:42.534Z,52.67
2023-04-14T01:59:42.483Z,54.44
2023-04-14T02:00:42.556Z,52.50
2023-04-14T02:01:42.641Z,62.12
2023-04-14T02:04:02.688Z,0.50
2023-04-14T02:05:02.499Z,0.50
2023-04-14T02:06:02.515Z,0.50
2023-04-14T02:07:02.465Z,0.50
2023-04-14T02:08:02.512Z,0.50
2023-04-14T02:09:02.560Z,0.49
2023-04-14T02:10:02.493Z,0.50
2023-04-14T02:11:02.449Z,0.49
2023-04-14T02:12:02.433Z,0.51
2023-04-14T02:13:02.476Z,0.61
2023-04-14T02:14:02.421Z,0.69
2023-04-14T02:15:02.416Z,0.73
2023-04-14T02:16:02.393Z,0.83
2023-04-14T02:17:02.395Z,0.83
2023-04-14T02:18:02.480Z,0.88
2023-04-14T02:19:02.602Z,0.95
2023-04-14T02:20:02.393Z,1.00
2023-04-14T02:21:02.400Z,1.13
2023-04-14T02:22:02.362Z,1.14
2023-04-14T02:23:02.388Z,1.27
2023-04-14T02:24:02.361Z,1.29
2023-04-14T02:25:02.355Z,1.17
2023-04-14T02:26:02.348Z,1.00
2023-04-14T02:27:02.336Z,0.90
2023-04-14T02:28:02.355Z,1.02
2023-04-14T02:29:02.667Z,1.08
2023-04-14T02:30:02.312Z,1.09
2023-04-14T02:31:02.336Z,0.91
2023-04-14T02:32:02.331Z,0.91
2023-04-14T02:33:02.315Z,0.87
2023-04-14T02:34:02.286Z,0.91
2023-04-14T02:35:02.316Z,0.99
2023-04-14T02:36:02.288Z,1.18
2023-04-14T02:37:02.242Z,1.10
2023-04-14T02:38:02.260Z,1.07
2023-04-14T02:39:02.505Z,1.22
2023-04-14T02:40:02.354Z,1.30
2023-04-14T02:41:02.318Z,1.38
2023-04-14T02:42:02.224Z,1.37
2023-04-14T02:43:02.255Z,1.64
2023-04-14T02:44:02.269Z,2.08
2023-04-14T02:45:02.228Z,2.40
2023-04-14T02:46:02.354Z,3.23
2023-04-14T02:47:02.326Z,4.72
2023-04-14T02:48:02.397Z,4.67
2023-04-14T02:49:02.597Z,4.77
2023-04-14T02:50:02.412Z,5.25
2023-04-14T02:51:02.454Z,3.41
2023-04-14T02:52:02.452Z,3.11
2023-04-14T02:53:02.522Z,3.27
2023-04-14T02:54:02.523Z,3.38
2023-04-14T02:55:02.516Z,3.83
2023-04-14T02:56:02.497Z,4.05
2023-04-14T02:57:02.545Z,4.63
2023-04-14T02:58:02.555Z,5.09
2023-04-14T02:59:02.694Z,5.14
2023-04-14T03:00:02.573Z,4.72
2023-04-14T03:01:02.593Z,4.60
2023-04-14T03:02:02.688Z,4.42
2023-04-14T03:03:02.630Z,5.25
2023-04-14T03:04:03.354Z,7.13
2023-04-14T03:05:02.701Z,8.17
2023-04-14T03:06:02.753Z,10.48
2023-04-14T03:07:02.840Z,11.52
2023-04-14T03:08:02.897Z,13.80
2023-04-14T03:09:03.045Z,18.05
2023-04-14T03:10:03.019Z,21.01
2023-04-14T03:11:03.037Z,31.01
2023-04-14T03:12:03.095Z,20.14
2023-04-14T03:13:03.153Z,10.76
2023-04-14T03:14:03.224Z,8.86
2023-04-14T03:15:03.270Z,7.71
2023-04-14T03:16:03.386Z,6.23
2023-04-14T03:17:03.421Z,4.57
2023-04-14T03:18:03.508Z,4.79
2023-04-14T03:19:03.544Z,6.34
2023-04-14T03:20:03.571Z,6.53
2023-04-14T03:21:03.621Z,6.52
2023-04-14T03:22:03.651Z,7.47
2023-04-14T03:23:03.701Z,8.01
2023-04-14T03:24:03.690Z,8.28
2023-04-14T03:25:03.701Z,9.77
2023-04-14T03:26:03.742Z,10.73
2023-04-14T03:27:03.792Z,10.91
2023-04-14T03:28:03.893Z,12.37
2023-04-14T03:29:03.985Z,13.13
2023-04-14T03:30:04.057Z,12.25
2023-04-14T03:31:04.130Z,12.44
2023-04-14T03:32:04.127Z,15.65
2023-04-14T03:33:04.213Z,19.47
2023-04-14T03:34:04.217Z,25.74
2023-04-14T03:35:04.312Z,35.87
2023-04-14T03:36:04.265Z,35.49
2023-04-14T03:37:04.333Z,33.58
2023-04-14T03:38:04.273Z,24.66
2023-04-14T03:39:04.349Z,23.27
2023-04-14T03:40:04.342Z,23.47
2023-04-14T03:41:04.281Z,31.68
2023-04-14T03:42:04.335Z,51.25
2023-04-14T03:43:04.392Z,81.64
2023-04-14T03:44:04.421Z,99.57
2023-04-14T03:45:04.471Z,100.83
2023-04-14T03:46:04.470Z,104.59
2023-04-14T03:47:04.682Z,93.61
2023-04-14T03:48:04.646Z,68.09
2023-04-14T03:49:04.577Z,42.62
2023-04-14T03:50:04.571Z,42.04
2023-04-14T03:51:04.632Z,44.67
2023-04-14T03:52:04.584Z,47.35
2023-04-14T03:53:04.599Z,43.09
2023-04-14T03:54:04.637Z,33.03
2023-04-14T03:55:04.659Z,29.21
2023-04-14T03:56:04.670Z,26.23
2023-04-14T03:57:04.701Z,28.72
2023-04-14T03:58:04.702Z,34.87
2023-04-14T03:59:04.800Z,44.78
2023-04-14T04:00:04.737Z,54.06
2023-04-14T04:01:04.766Z,62.20
2023-04-14T04:02:04.895Z,64.35
2023-04-14T04:03:05.068Z,60.10
2023-04-14T04:04:04.975Z,49.17
2023-04-14T04:05:05.025Z,44.26
2023-04-14T04:06:04.928Z,38.39
2023-04-14T04:07:04.982Z,32.06
2023-04-14T04:08:04.974Z,27.71
2023-04-14T04:09:05.027Z,26.01
2023-04-14T04:10:05.033Z,32.23
2023-04-14T04:11:05.936Z,44.47
2023-04-14T04:12:05.027Z,64.47
2023-04-14T04:13:05.091Z,91.78
2023-04-14T04:14:05.151Z,106.26
2023-04-14T04:15:05.162Z,88.33
2023-04-14T04:16:05.190Z,76.19
2023-04-14T04:17:05.138Z,71.34
2023-04-14T04:18:05.202Z,74.82
2023-04-14T04:19:05.256Z,100.64
2023-04-14T04:20:07.203Z,136.81
2023-04-14T04:21:05.208Z,188.85
2023-04-14T04:22:05.343Z,200.66
2023-04-14T04:23:05.259Z,199.75
2023-04-14T04:24:05.290Z,216.61
2023-04-14T04:25:05.272Z,222.46
2023-04-14T04:26:05.296Z,212.58
2023-04-14T04:28:05.300Z,248.87
2023-04-14T04:29:05.427Z,215.84
2023-04-14T04:30:05.383Z,228.89
2023-04-14T04:31:05.429Z,287.12
2023-04-14T04:32:05.494Z,375.31
2023-04-14T04:33:05.540Z,347.09
2023-04-14T04:34:05.531Z,314.28
2023-04-14T04:35:05.636Z,287.84
2023-04-14T04:36:05.665Z,236.79
2023-04-14T04:37:05.606Z,209.27
2023-04-14T04:38:05.635Z,193.08
2023-04-14T04:39:05.721Z,233.61
2023-04-14T04:40:05.796Z,222.55
2023-04-14T04:41:05.661Z,225.26
2023-04-14T04:42:05.716Z,200.65
2023-04-14T04:43:05.736Z,203.98
2023-04-14T04:44:05.727Z,176.00
2023-04-14T04:45:05.746Z,170.12
2023-04-14T04:46:05.801Z,165.33
2023-04-14T04:47:05.812Z,150.55
2023-04-14T04:48:05.830Z,180.50
2023-04-14T04:49:05.878Z,207.95
2023-04-14T04:50:05.883Z,227.07
2023-04-14T04:51:05.899Z,225.16
2023-04-14T04:52:05.897Z,231.66
2023-04-14T04:53:05.941Z,238.27
2023-04-14T04:54:05.902Z,273.24
2023-04-14T04:55:05.925Z,331.76
2023-04-14T04:56:05.933Z,348.06
2023-04-14T04:57:05.929Z,319.29
2023-04-14T04:58:05.961Z,319.15
2023-04-14T04:59:06.019Z,360.13
2023-04-14T05:00:06.042Z,474.11
2023-04-14T05:02:34.094Z,0.50
2023-04-14T05:03:26.474Z,0.50
2023-04-14T05:04:26.400Z,0.50
2023-04-14T05:05:26.374Z,0.50
2023-04-14T05:06:26.394Z,0.50
2023-04-14T05:07:26.339Z,0.50
2023-04-14T05:08:26.399Z,0.78
2023-04-14T05:09:26.373Z,1.34
2023-04-14T05:10:26.407Z,2.51
2023-04-14T05:11:26.416Z,3.82
2023-04-14T05:12:26.383Z,6.25
2023-04-14T05:13:26.345Z,9.81
2023-04-14T05:14:27.518Z,15.31
2023-04-14T05:15:26.320Z,25.15
2023-04-14T05:16:26.374Z,65.74
2023-04-14T05:17:26.322Z,152.54
2023-04-14T05:18:26.314Z,265.66
2023-04-14T05:19:26.312Z,363.85
2023-04-14T05:20:26.335Z,397.49
2023-04-14T05:21:26.294Z,385.55
2023-04-14T05:22:26.300Z,249.64
2023-04-14T05:23:26.405Z,193.11
2023-04-14T05:24:26.335Z,186.57
2023-04-14T05:25:26.267Z,155.51
2023-04-14T05:26:49.048Z,142.04
2023-04-14T05:27:27.243Z,142.08
2023-04-14T05:28:26.265Z,151.28
2023-04-14T05:29:26.283Z,189.83
2023-04-14T05:30:26.204Z,225.92
2023-04-14T05:31:26.237Z,217.88
2023-04-14T05:32:27.718Z,176.51
2023-04-14T05:33:26.577Z,119.02
2023-04-14T05:34:26.539Z,83.48
2023-04-14T05:35:26.572Z,56.41
2023-04-14T05:36:26.515Z,44.06
2023-04-14T05:37:27.426Z,37.25
2023-04-14T05:38:27.153Z,31.66
2023-04-14T05:39:26.614Z,49.63
2023-04-14T05:40:26.665Z,98.55
2023-04-14T05:41:26.685Z,51.20
2023-04-14T05:42:26.719Z,59.62
2023-04-14T05:43:26.776Z,104.14
2023-04-14T05:44:27.075Z,164.76
2023-04-14T05:45:26.925Z,223.56
2023-04-14T05:47:48.109Z,0.50
2023-04-14T05:48:46.846Z,0.50
2023-04-14T05:49:46.626Z,0.50
2023-04-14T05:50:46.676Z,0.50
2023-04-14T05:51:46.638Z,0.50
2023-04-14T05:52:46.659Z,0.52
2023-04-14T05:53:46.666Z,0.50
2023-04-14T05:54:46.652Z,0.47
2023-04-14T05:55:46.664Z,0.49
2023-04-14T05:56:47.199Z,0.48
2023-04-14T05:57:46.578Z,0.38
2023-04-14T05:58:46.648Z,0.34
2023-04-14T05:59:46.586Z,0.35
2023-04-14T06:00:46.613Z,0.34
2023-04-14T06:01:46.688Z,0.34
2023-04-14T06:02:46.733Z,0.34
2023-04-14T06:03:47.111Z,0.35
2023-04-14T06:04:46.796Z,0.51
2023-04-14T06:05:46.802Z,0.64
2023-04-14T06:06:46.819Z,0.69
2023-04-14T06:07:46.902Z,0.58
2023-04-14T06:08:47.489Z,0.65
2023-04-14T06:09:46.944Z,0.72
2023-04-14T06:10:47.859Z,0.73
2023-04-14T06:11:47.071Z,0.81
2023-04-14T06:12:47.211Z,0.65
2023-04-14T06:13:47.112Z,0.64
2023-04-14T06:14:47.405Z,0.88
2023-04-14T06:15:47.283Z,1.14
2023-04-14T06:16:47.348Z,0.85
2023-04-14T06:17:47.336Z,0.37
2023-04-14T06:18:47.237Z,0.54
2023-04-14T06:19:47.394Z,0.81
2023-04-14T06:20:47.242Z,1.11
2023-04-14T06:21:47.312Z,1.17
2023-04-14T06:22:47.356Z,0.81
2023-04-14T06:23:47.366Z,0.71
2023-04-14T06:24:47.834Z,0.74
2023-04-14T06:25:47.481Z,0.92
2023-04-14T06:26:47.608Z,1.17
2023-04-14T06:27:47.616Z,1.67
2023-04-14T06:28:48.011Z,2.03
2023-04-14T06:29:47.854Z,2.36
2023-04-14T06:30:47.848Z,2.40
2023-04-14T06:31:47.855Z,2.41
2023-04-14T06:32:48.033Z,2.45
2023-04-14T06:33:47.977Z,2.55
2023-04-14T06:34:48.647Z,2.37
2023-04-14T06:35:48.071Z,2.35
2023-04-14T06:36:48.177Z,1.94
2023-04-14T06:37:48.321Z,1.68
2023-04-14T06:38:48.293Z,1.54
2023-04-14T06:39:48.389Z,1.70
2023-04-14T06:40:48.312Z,1.81
2023-04-14T06:41:48.302Z,1.77
2023-04-14T06:42:48.330Z,1.68
2023-04-14T06:43:48.321Z,1.50
2023-04-14T06:44:48.866Z,1.25
2023-04-14T06:45:48.493Z,1.33
2023-04-14T06:46:48.579Z,1.45
2023-04-14T06:47:48.633Z,1.68
2023-04-14T06:48:48.680Z,1.84
2023-04-14T06:49:48.757Z,1.85
2023-04-14T06:50:48.813Z,1.74
2023-04-14T06:51:48.884Z,1.57
2023-04-14T06:52:48.904Z,1.72
2023-04-14T06:53:49.001Z,2.10
2023-04-14T06:54:49.014Z,2.55
2023-04-14T06:55:49.004Z,3.01
2023-04-14T06:56:49.012Z,3.26
2023-04-14T06:57:49.029Z,3.84
2023-04-14T06:58:49.139Z,3.78
2023-04-14T06:59:49.156Z,3.66
2023-04-14T07:00:49.151Z,3.37
2023-04-14T07:01:49.364Z,2.94
2023-04-14T07:02:49.358Z,2.62
2023-04-14T07:03:49.294Z,2.96
2023-04-14T07:04:49.887Z,2.29
2023-04-14T07:05:50.393Z,2.67
2023-04-14T07:06:49.479Z,3.07
2023-04-14T07:07:49.503Z,3.28
2023-04-14T07:08:49.574Z,3.61
2023-04-14T07:09:49.978Z,3.22
2023-04-14T07:10:49.643Z,3.59
2023-04-14T07:11:49.684Z,3.55
2023-04-14T07:12:49.800Z,3.39
2023-04-14T07:13:49.778Z,3.19
2023-04-14T07:14:49.942Z,2.79
2023-04-14T07:15:49.971Z,3.06
2023-04-14T07:16:50.042Z,3.17
2023-04-14T07:17:50.402Z,3.43
2023-04-14T07:18:49.995Z,3.54
2023-04-14T07:19:50.051Z,4.19
2023-04-14T07:20:50.145Z,3.61
2023-04-14T07:21:50.376Z,3.78
2023-04-14T07:22:50.291Z,3.31
2023-04-14T07:23:50.285Z,3.17
2023-04-14T07:24:50.382Z,3.11
2023-04-14T07:25:50.324Z,4.24
2023-04-14T07:26:50.311Z,9.40
2023-04-14T07:28:02.568Z,8.47
2023-04-14T07:28:51.346Z,6.44
2023-04-14T07:29:50.337Z,5.92
2023-04-14T07:30:50.358Z,4.99
2023-04-14T07:31:50.448Z,3.78
2023-04-14T07:32:50.344Z,3.13
2023-04-14T07:33:50.300Z,3.17
2023-04-14T07:34:50.823Z,2.83
2023-04-14T07:36:01.234Z,2.48
2023-04-14T07:36:51.308Z,2.39
2023-04-14T07:37:50.277Z,2.47
2023-04-14T07:38:50.757Z,2.56
2023-04-14T07:39:50.377Z,2.73
2023-04-14T07:40:50.279Z,3.18
2023-04-14T07:41:50.255Z,3.34
2023-04-14T07:42:50.272Z,3.04
2023-04-14T07:43:50.267Z,2.65
2023-04-14T07:44:50.384Z,2.67
2023-04-14T07:45:50.385Z,2.76
2023-04-14T07:46:50.347Z,2.81
2023-04-14T07:47:50.220Z,2.90
2023-04-14T07:48:50.263Z,3.30
2023-04-14T07:49:50.321Z,3.82
2023-04-14T07:50:50.363Z,3.82
2023-04-14T07:51:50.358Z,3.91
2023-04-14T07:52:50.337Z,4.39
2023-04-14T07:53:50.430Z,4.52
2023-04-14T07:54:50.581Z,2.85
2023-04-14T07:55:50.501Z,2.71
2023-04-14T07:56:50.511Z,2.73
2023-04-14T07:57:50.481Z,2.17
2023-04-14T07:58:50.487Z,2.24
2023-04-14T07:59:50.578Z,2.06
2023-04-14T08:00:50.553Z,2.21
2023-04-14T08:01:50.612Z,2.41
2023-04-14T08:02:50.696Z,2.39
2023-04-14T08:03:50.802Z,2.34
2023-04-14T08:04:50.642Z,2.30
2023-04-14T08:05:50.720Z,2.01
2023-04-14T08:06:50.699Z,1.08
2023-04-14T08:07:50.751Z,0.99
2023-04-14T08:08:50.748Z,0.92
2023-04-14T08:09:50.874Z,1.04
2023-04-14T08:10:50.769Z,1.18
2023-04-14T08:11:50.845Z,1.46
2023-04-14T08:12:50.860Z,1.42
2023-04-14T08:13:50.936Z,1.34
2023-04-14T08:14:51.368Z,0.95
2023-04-14T08:15:50.927Z,0.90
2023-04-14T08:16:50.939Z,0.99
2023-04-14T08:17:50.965Z,1.50
2023-04-14T08:18:51.058Z,4.23
2023-04-14T08:19:51.409Z,2.40
2023-04-14T08:20:51.004Z,1.58
2023-04-14T08:21:50.998Z,1.26
2023-04-14T08:22:51.063Z,0.77
2023-04-14T08:23:51.118Z,0.70
2023-04-14T08:24:51.111Z,0.65
2023-04-14T08:25:51.166Z,0.52
2023-04-14T08:26:51.197Z,0.53
2023-04-14T08:27:51.197Z,0.60
2023-04-14T08:28:51.205Z,0.67
2023-04-14T08:29:51.431Z,0.85
2023-04-14T08:30:51.338Z,0.60
2023-04-14T08:31:51.420Z,0.46
2023-04-14T08:32:51.375Z,0.53
2023-04-14T08:33:51.393Z,0.59
2023-04-14T08:35:37.236Z,0.93
2023-04-14T08:35:57.108Z,0.93
2023-04-14T08:36:52.958Z,0.79
2023-04-14T08:37:51.373Z,0.75
2023-04-14T08:38:51.673Z,0.79
2023-04-14T08:39:51.316Z,0.80
2023-04-14T08:40:51.327Z,0.85
2023-04-14T08:41:51.403Z,1.08
2023-04-14T08:42:51.310Z,1.42
2023-04-14T08:43:51.258Z,1.33
2023-04-14T08:44:51.262Z,1.41
2023-04-14T08:45:51.394Z,1.63
2023-04-14T08:46:51.319Z,2.06
2023-04-14T08:47:51.262Z,2.06
2023-04-14T08:48:51.253Z,1.74
2023-04-14T08:49:51.298Z,1.80
2023-04-14T08:50:51.371Z,2.13
2023-04-14T08:51:51.315Z,1.99
2023-04-14T08:52:52.272Z,2.31
2023-04-14T08:53:51.273Z,2.22
2023-04-14T08:54:51.223Z,2.28
2023-04-14T08:55:51.391Z,2.66
2023-04-14T08:56:51.298Z,2.29
2023-04-14T08:57:51.307Z,2.23
2023-04-14T08:58:51.350Z,2.43
2023-04-14T08:59:51.429Z,2.91
2023-04-14T09:00:51.927Z,2.22
2023-04-14T09:01:51.757Z,1.97
2023-04-14T09:02:52.126Z,1.48
2023-04-14T09:03:51.882Z,1.02
2023-04-14T09:04:51.946Z,0.99
2023-04-14T09:05:51.699Z,0.84
2023-04-14T09:06:51.807Z,0.77
2023-04-14T09:07:51.798Z,0.81
2023-04-14T09:08:51.794Z,0.45
2023-04-14T09:09:59.473Z,0.52
2023-04-14T09:10:51.807Z,0.52
2023-04-14T09:11:51.840Z,0.46
2023-04-14T09:12:51.811Z,0.51
2023-04-14T09:13:51.799Z,0.52
2023-04-14T09:14:51.825Z,0.40
2023-04-14T09:15:51.784Z,0.34
2023-04-14T09:16:51.802Z,0.42
2023-04-14T09:17:51.900Z,0.56
2023-04-14T09:18:51.884Z,0.71
2023-04-14T09:20:35.780Z,0.60
2023-04-14T09:21:28.931Z,0.60
2023-04-14T09:21:54.751Z,0.60
2023-04-14T09:22:51.777Z,0.61
2023-04-14T09:23:51.757Z,0.63
2023-04-14T09:24:51.919Z,0.52
2023-04-14T09:25:51.754Z,0.46
2023-04-14T09:26:51.810Z,0.60
2023-04-14T09:27:51.723Z,0.89
2023-04-14T09:28:52.796Z,0.91
2023-04-14T09:29:51.743Z,0.77
2023-04-14T09:30:51.870Z,0.72
2023-04-14T09:31:51.836Z,0.65
2023-04-14T09:32:51.777Z,0.60
2023-04-14T09:33:51.841Z,0.52
2023-04-14T09:34:51.693Z,0.49
2023-04-14T09:35:52.168Z,0.48
2023-04-14T09:36:51.625Z,0.56
2023-04-14T09:37:51.641Z,0.51
2023-04-14T09:38:51.660Z,0.50
2023-04-14T09:39:51.643Z,0.38
2023-04-14T09:40:51.684Z,0.34
2023-04-14T09:41:51.985Z,0.34
2023-04-14T09:42:51.663Z,0.46
2023-04-14T09:43:51.623Z,0.46
2023-04-14T09:44:51.611Z,0.49
2023-04-14T09:45:51.652Z,0.58
2023-04-14T09:46:53.833Z,0.50
2023-04-14T09:47:51.571Z,0.50
2023-04-14T09:48:51.664Z,0.62
2023-04-14T09:49:51.581Z,0.57
2023-04-14T09:50:52.362Z,0.55
2023-04-14T09:51:51.990Z,0.58
2023-04-14T09:52:51.585Z,0.50
2023-04-14T09:53:51.604Z,0.49
2023-04-14T09:54:51.612Z,0.53
2023-04-14T09:55:51.506Z,0.60
2023-04-14T09:56:51.530Z,0.79
2023-04-14T09:57:51.517Z,0.73
2023-04-14T09:58:59.450Z,0.66
2023-04-14T09:59:51.471Z,0.54
2023-04-14T10:00:51.528Z,0.51
2023-04-14T10:01:51.812Z,0.65
2023-04-14T10:02:51.602Z,0.62
2023-04-14T10:03:51.542Z,0.46
2023-04-14T10:04:51.591Z,0.47
2023-04-14T10:05:51.497Z,0.59
2023-04-14T10:06:51.608Z,0.81
2023-04-14T10:07:51.684Z,1.01
2023-04-14T10:08:51.733Z,0.96
2023-04-14T10:09:51.708Z,0.79
2023-04-14T10:10:51.727Z,0.75
2023-04-14T10:11:51.788Z,0.79
2023-04-14T10:12:52.508Z,0.69
2023-04-14T10:13:51.854Z,0.70
2023-04-14T10:14:51.885Z,0.62
2023-04-14T10:15:51.878Z,0.61
2023-04-14T10:16:52.964Z,0.52
2023-04-14T10:17:51.894Z,0.54
2023-04-14T10:18:51.868Z,0.61
2023-04-14T10:19:51.818Z,0.98
2023-04-14T10:20:51.856Z,0.88
2023-04-14T10:21:51.889Z,0.66
2023-04-14T10:22:51.913Z,0.52
2023-04-14T10:23:51.958Z,0.59
2023-04-14T10:24:52.115Z,0.77
2023-04-14T10:25:52.057Z,1.01
2023-04-14T10:26:52.226Z,0.75
2023-04-14T10:27:52.164Z,0.64
2023-04-14T10:28:52.771Z,0.51
2023-04-14T10:29:52.242Z,0.52
2023-04-14T10:30:52.166Z,0.44
2023-04-14T10:31:52.531Z,0.56
2023-04-14T10:32:52.417Z,1.02
2023-04-14T10:33:52.297Z,0.91
2023-04-14T10:34:52.407Z,1.00
2023-04-14T10:35:52.418Z,0.80
2023-04-14T10:36:52.977Z,0.98
2023-04-14T10:37:52.512Z,0.80
2023-04-14T10:38:52.575Z,0.42
2023-04-14T10:39:52.663Z,0.34
2023-04-14T10:40:52.654Z,0.54
2023-04-14T10:41:52.997Z,0.65
2023-04-14T10:42:52.765Z,0.68
2023-04-14T10:43:52.767Z,0.47
2023-04-14T10:44:52.740Z,0.54
2023-04-14T10:45:52.790Z,0.53
2023-04-14T10:46:52.985Z,0.40
2023-04-14T10:47:52.857Z,0.38
2023-04-14T10:48:52.853Z,0.44
2023-04-14T10:49:52.897Z,0.35
2023-04-14T10:50:52.913Z,0.34
2023-04-14T10:51:53.003Z,0.34
2023-04-14T10:52:52.996Z,0.34
2023-04-14T10:53:53.060Z,0.46
2023-04-14T10:54:53.176Z,0.80
2023-04-14T10:55:53.059Z,0.72
2023-04-14T10:56:53.080Z,0.36
2023-04-14T10:57:53.093Z,0.44
2023-04-14T10:58:53.182Z,0.54
2023-04-14T10:59:53.175Z,0.34
2023-04-14T11:00:53.338Z,0.34
2023-04-14T11:01:53.375Z,0.34
2023-04-14T11:02:53.449Z,0.34
2023-04-14T11:03:53.597Z,0.34
2023-04-14T11:04:53.405Z,0.34
2023-04-14T11:05:53.433Z,0.46
2023-04-14T11:06:53.550Z,0.75
2023-04-14T11:07:53.524Z,0.56
2023-04-14T11:08:53.499Z,0.49
2023-04-14T11:09:53.533Z,0.55
2023-04-14T11:10:53.556Z,0.35
2023-04-14T11:11:53.963Z,0.34
2023-04-14T11:12:53.548Z,0.34
2023-04-14T11:13:53.567Z,0.50
2023-04-14T11:14:53.662Z,0.54
2023-04-14T11:15:53.731Z,0.58
2023-04-14T11:17:02.585Z,0.52
2023-04-14T11:17:54.808Z,0.42
2023-04-14T11:18:53.749Z,0.47
2023-04-14T11:19:53.651Z,0.44
2023-04-14T11:20:53.719Z,0.43
2023-04-14T11:21:54.259Z,0.83
2023-04-14T11:22:53.675Z,1.09
2023-04-14T11:23:53.638Z,0.47
2023-04-14T11:24:53.682Z,0.81
2023-04-14T11:25:53.653Z,1.00
2023-04-14T11:26:53.707Z,1.33
2023-04-14T11:27:53.966Z,0.59
2023-04-14T11:28:53.665Z,0.36
2023-04-14T11:29:53.790Z,0.61
2023-04-14T11:30:53.800Z,0.84
2023-04-14T11:31:53.836Z,1.44
2023-04-14T11:32:54.373Z,1.59
2023-04-14T11:33:54.150Z,1.46
2023-04-14T11:34:53.899Z,0.91
2023-04-14T11:35:53.927Z,0.89
2023-04-14T11:36:53.875Z,0.34
2023-04-14T11:37:53.904Z,0.57
2023-04-14T11:38:53.949Z,0.64
2023-04-14T11:39:53.973Z,0.54
2023-04-14T11:40:53.967Z,0.54
2023-04-14T11:41:53.975Z,0.46
2023-04-14T11:42:54.488Z,0.53
2023-04-14T11:43:54.082Z,0.72
2023-04-14T11:44:54.112Z,0.88
2023-04-14T11:45:54.194Z,1.41
2023-04-14T11:46:54.216Z,1.15
2023-04-14T11:47:54.351Z,1.31
2023-04-14T11:48:54.269Z,1.20
2023-04-14T11:49:54.369Z,0.98
2023-04-14T11:50:54.381Z,0.76
2023-04-14T11:51:54.370Z,1.26
2023-04-14T11:52:54.391Z,1.14
2023-04-14T11:53:54.420Z,1.04
2023-04-14T11:54:54.484Z,1.31
2023-04-14T11:55:54.441Z,0.76
2023-04-14T11:56:54.571Z,0.87
2023-04-14T11:57:54.619Z,0.53
2023-04-14T11:58:54.600Z,0.55
2023-04-14T11:59:54.709Z,0.89
2023-04-14T12:00:56.156Z,0.90
2023-04-14T12:02:54.972Z,1.02
2023-04-14T12:03:54.984Z,0.86
2023-04-14T12:04:55.101Z,0.74
2023-04-14T12:05:54.890Z,0.36
2023-04-14T12:06:55.005Z,0.36
2023-04-14T12:07:55.082Z,0.67
2023-04-14T12:08:55.097Z,0.55
2023-04-14T12:09:55.105Z,0.48
2023-04-14T12:10:55.120Z,0.85
2023-04-14T12:11:55.153Z,1.10
2023-04-14T12:12:55.239Z,1.24
2023-04-14T12:13:55.314Z,1.43
2023-04-14T12:14:55.268Z,0.80
2023-04-14T12:15:55.309Z,0.42
2023-04-14T12:16:55.269Z,0.42
2023-04-14T12:17:55.775Z,0.43
2023-04-14T12:18:55.289Z,0.57
2023-04-14T12:19:55.287Z,0.95
2023-04-14T12:20:55.366Z,0.68
2023-04-14T12:21:55.427Z,0.45
2023-04-14T12:22:55.442Z,0.59
2023-04-14T12:23:55.433Z,0.71
2023-04-14T12:24:55.451Z,0.69
2023-04-14T12:25:55.528Z,0.78
2023-04-14T12:26:55.552Z,0.66
2023-04-14T12:27:57.120Z,0.52
2023-04-14T12:28:55.560Z,0.59
2023-04-14T12:29:55.588Z,0.34
2023-04-14T12:30:55.635Z,0.42
2023-04-14T12:31:55.767Z,1.21
2023-04-14T12:32:55.854Z,1.69
2023-04-14T12:33:56.838Z,1.85
2023-04-14T12:34:55.785Z,2.45
2023-04-14T12:35:55.790Z,2.94
2023-04-14T12:36:55.814Z,1.72
2023-04-14T12:37:55.843Z,1.70
2023-04-14T12:38:55.829Z,1.11
2023-04-14T12:39:55.870Z,0.98
2023-04-14T12:40:55.917Z,1.23
2023-04-14T12:41:55.865Z,1.87
2023-04-14T12:42:56.015Z,1.66
2023-04-14T12:43:55.933Z,1.23
2023-04-14T12:44:56.017Z,1.04
2023-04-14T12:45:56.062Z,0.69
2023-04-14T12:46:56.103Z,0.87
2023-04-14T12:47:56.150Z,0.84
2023-04-14T12:48:56.091Z,1.06
2023-04-14T12:49:56.067Z,0.80
2023-04-14T12:50:56.104Z,0.77
2023-04-14T12:51:56.111Z,0.52
2023-04-14T12:52:56.151Z,0.50
2023-04-14T12:53:56.187Z,0.82
2023-04-14T12:54:56.229Z,1.17
2023-04-14T12:55:56.284Z,1.07
2023-04-14T12:56:56.244Z,1.37
2023-04-14T12:57:56.257Z,1.70
2023-04-14T12:58:56.285Z,2.60
2023-04-14T12:59:56.327Z,2.36
2023-04-14T13:00:56.386Z,1.94
2023-04-14T13:01:56.464Z,1.09
2023-04-14T13:02:56.474Z,0.74
2023-04-14T13:03:56.489Z,0.88
2023-04-14T13:04:56.443Z,0.63
2023-04-14T13:05:56.456Z,0.46
2023-04-14T13:06:56.475Z,0.51
2023-04-14T13:07:56.532Z,0.61
2023-04-14T13:08:56.586Z,0.83
2023-04-14T13:09:56.544Z,0.92
2023-04-14T13:10:56.614Z,0.86
2023-04-14T13:11:56.653Z,1.10
2023-04-14T13:12:56.653Z,1.25